DLH46 EDDM-KJFK
Flight info
| Callsign | DLH46 |
|---|---|
| Flight time | N/A |
| Altitude | 36000 |
| Route | GIVMI1N/26R GIVMI Y101 INBED DCT REKDI DCT LOHRE DCT ADKUV DCT DENUT L610 KOPUL Q60 OKSAW DCT TEWXI DCT VATRY DCT DOGAL/M083F370 NATC ELSIR/N0476F380 N402C ALLEX DCT ENE PARCH4 |
| Aircraft | A346/H-SDE2E3FGHIJ3J4J5M1RWXY/LB1D1 |
Departure
| Time | 2026-05-07 13:14 |
|---|---|
| Airport | Munich Airport (EDDM) |
Arrival
| Time | N/A |
|---|---|
| Airport | John F. Kennedy International Airport (KJFK) |
| Time | Latitude | Longitude | Altitude | Speed | Heading |
|---|---|---|---|---|---|
| 2026-05-07 13:09 | 48.36423 | 11.82152 | 1474 ft | 0 kts | 349° |
| 2026-05-07 13:12 | 48.36430 | 11.82150 | 1474 ft | 2 kts | 350° |
| 2026-05-07 13:12 | 48.36451 | 11.82145 | 1465 ft | 4 kts | 352° |
| 2026-05-07 13:12 | 48.36494 | 11.82137 | 1465 ft | 9 kts | 352° |
| 2026-05-07 13:12 | 48.36575 | 11.82121 | 1474 ft | 13 kts | 351° |
| 2026-05-07 13:13 | 48.36659 | 11.82076 | 1465 ft | 12 kts | 318° |
| 2026-05-07 13:13 | 48.36677 | 11.81947 | 1469 ft | 21 kts | 266° |
| 2026-05-07 13:13 | 48.36634 | 11.81384 | 1469 ft | 85 kts | 263° |
| 2026-05-07 13:13 | 48.36543 | 11.80201 | 1472 ft | 140 kts | 263° |
| 2026-05-07 13:14 | 48.36409 | 11.78507 | 1517 ft | 179 kts | 264° |
| 2026-05-07 13:14 | 48.36312 | 11.77231 | 1863 ft | 183 kts | 267° |
| 2026-05-07 13:14 | 48.36199 | 11.75331 | 2553 ft | 186 kts | 266° |
| 2026-05-07 13:14 | 48.36065 | 11.73396 | 3279 ft | 186 kts | 265° |
| 2026-05-07 13:15 | 48.35910 | 11.71394 | 3773 ft | 200 kts | 265° |
| 2026-05-07 13:15 | 48.35763 | 11.69228 | 4185 ft | 214 kts | 272° |
| 2026-05-07 13:15 | 48.36097 | 11.67004 | 4599 ft | 224 kts | 296° |
| 2026-05-07 13:15 | 48.36900 | 11.64898 | 4956 ft | 240 kts | 300° |
| 2026-05-07 13:16 | 48.37812 | 11.62691 | 5323 ft | 254 kts | 301° |
| 2026-05-07 13:16 | 48.38756 | 11.60411 | 5982 ft | 258 kts | 300° |
| 2026-05-07 13:16 | 48.39703 | 11.58114 | 6688 ft | 259 kts | 300° |
| 2026-05-07 13:16 | 48.40655 | 11.55784 | 7361 ft | 262 kts | 300° |
| 2026-05-07 13:17 | 48.41691 | 11.53512 | 8021 ft | 267 kts | 314° |
| 2026-05-07 13:17 | 48.43302 | 11.52076 | 8657 ft | 274 kts | 336° |
| 2026-05-07 13:17 | 48.45107 | 11.51109 | 9365 ft | 277 kts | 338° |
| 2026-05-07 13:17 | 48.46939 | 11.50146 | 10025 ft | 280 kts | 337° |
| 2026-05-07 13:18 | 48.48792 | 11.49126 | 10536 ft | 289 kts | 336° |
| 2026-05-07 13:18 | 48.50719 | 11.48020 | 10821 ft | 304 kts | 336° |
| 2026-05-07 13:18 | 48.52738 | 11.46828 | 11107 ft | 319 kts | 336° |
| 2026-05-07 13:18 | 48.54854 | 11.45566 | 11416 ft | 335 kts | 336° |
| 2026-05-07 13:19 | 48.57068 | 11.44239 | 11706 ft | 350 kts | 336° |
| 2026-05-07 13:19 | 48.59390 | 11.42843 | 11979 ft | 365 kts | 336° |
| 2026-05-07 13:19 | 48.61784 | 11.41401 | 12395 ft | 374 kts | 336° |
| 2026-05-07 13:19 | 48.64208 | 11.39940 | 13000 ft | 376 kts | 336° |
| 2026-05-07 13:20 | 48.66646 | 11.38467 | 13653 ft | 379 kts | 335° |
| 2026-05-07 13:20 | 48.69084 | 11.36853 | 14283 ft | 381 kts | 332° |
| 2026-05-07 13:20 | 48.71442 | 11.34970 | 14860 ft | 384 kts | 328° |
| 2026-05-07 13:20 | 48.73718 | 11.32816 | 15430 ft | 388 kts | 324° |
| 2026-05-07 13:21 | 48.75975 | 11.30544 | 16054 ft | 390 kts | 324° |
| 2026-05-07 13:21 | 48.78234 | 11.28244 | 16711 ft | 392 kts | 324° |
| 2026-05-07 13:21 | 48.80510 | 11.25928 | 17323 ft | 395 kts | 324° |
| 2026-05-07 13:21 | 48.82851 | 11.23682 | 17895 ft | 400 kts | 328° |
| 2026-05-07 13:22 | 48.85343 | 11.21730 | 18402 ft | 406 kts | 333° |
| 2026-05-07 13:22 | 48.87975 | 11.20110 | 18869 ft | 410 kts | 338° |
| 2026-05-07 13:22 | 48.90684 | 11.18697 | 19350 ft | 413 kts | 339° |
| 2026-05-07 13:22 | 48.93420 | 11.17322 | 19879 ft | 415 kts | 339° |
| 2026-05-07 13:23 | 48.96173 | 11.15942 | 20399 ft | 418 kts | 339° |
| 2026-05-07 13:23 | 48.98943 | 11.14546 | 20924 ft | 421 kts | 339° |
| 2026-05-07 13:23 | 49.01724 | 11.13139 | 21461 ft | 423 kts | 339° |
| 2026-05-07 13:23 | 49.04520 | 11.11717 | 22000 ft | 425 kts | 339° |
| 2026-05-07 13:24 | 49.07334 | 11.10283 | 22494 ft | 428 kts | 339° |
| 2026-05-07 13:24 | 49.10162 | 11.08838 | 22951 ft | 431 kts | 339° |
| 2026-05-07 13:24 | 49.13013 | 11.07377 | 23459 ft | 433 kts | 340° |
| 2026-05-07 13:24 | 49.15873 | 11.05918 | 23925 ft | 434 kts | 340° |
| 2026-05-07 13:25 | 49.18750 | 11.04451 | 24323 ft | 437 kts | 340° |
| 2026-05-07 13:25 | 49.21639 | 11.02970 | 24752 ft | 439 kts | 340° |
| 2026-05-07 13:25 | 49.24542 | 11.01473 | 25168 ft | 441 kts | 340° |
| 2026-05-07 13:25 | 49.27401 | 10.99998 | 25544 ft | 444 kts | 340° |
| 2026-05-07 13:26 | 49.30389 | 10.98457 | 25943 ft | 446 kts | 340° |
| 2026-05-07 13:26 | 49.33303 | 10.96953 | 26332 ft | 448 kts | 340° |
| 2026-05-07 13:26 | 49.36204 | 10.95180 | 26683 ft | 450 kts | 332° |
| 2026-05-07 13:26 | 49.38857 | 10.92649 | 27058 ft | 450 kts | 322° |
| 2026-05-07 13:27 | 49.41190 | 10.89434 | 27462 ft | 451 kts | 312° |
| 2026-05-07 13:27 | 49.43224 | 10.85761 | 27817 ft | 453 kts | 309° |
| 2026-05-07 13:27 | 49.45212 | 10.81985 | 28209 ft | 455 kts | 308° |
| 2026-05-07 13:27 | 49.47192 | 10.78190 | 28674 ft | 454 kts | 309° |
| 2026-05-07 13:28 | 49.49168 | 10.74392 | 29094 ft | 455 kts | 309° |
| 2026-05-07 13:28 | 49.51161 | 10.70582 | 29443 ft | 457 kts | 309° |
| 2026-05-07 13:28 | 49.53156 | 10.66778 | 29888 ft | 456 kts | 309° |
| 2026-05-07 13:28 | 49.55145 | 10.62989 | 30320 ft | 454 kts | 309° |
| 2026-05-07 13:29 | 49.57096 | 10.59273 | 30606 ft | 455 kts | 309° |
| 2026-05-07 13:29 | 49.59087 | 10.55472 | 30917 ft | 456 kts | 309° |
| 2026-05-07 13:29 | 49.61081 | 10.51656 | 31273 ft | 457 kts | 309° |
| 2026-05-07 13:29 | 49.63070 | 10.47841 | 31635 ft | 457 kts | 308° |
| 2026-05-07 13:30 | 49.65047 | 10.43987 | 31998 ft | 457 kts | 307° |
| 2026-05-07 13:30 | 49.66904 | 10.40009 | 32361 ft | 456 kts | 304° |
| 2026-05-07 13:30 | 49.68704 | 10.35966 | 32732 ft | 455 kts | 304° |
| 2026-05-07 13:30 | 49.70485 | 10.31925 | 33136 ft | 454 kts | 303° |
| 2026-05-07 13:31 | 49.72260 | 10.27887 | 33503 ft | 454 kts | 303° |
| 2026-05-07 13:31 | 49.74036 | 10.23843 | 33841 ft | 454 kts | 303° |
| 2026-05-07 13:31 | 49.75810 | 10.19803 | 34151 ft | 454 kts | 303° |
| 2026-05-07 13:31 | 49.77588 | 10.15748 | 34391 ft | 455 kts | 303° |
| 2026-05-07 13:32 | 49.79364 | 10.11695 | 34639 ft | 455 kts | 303° |
| 2026-05-07 13:32 | 49.81145 | 10.07627 | 34884 ft | 456 kts | 303° |
| 2026-05-07 13:32 | 49.82926 | 10.03553 | 35117 ft | 457 kts | 303° |
| 2026-05-07 13:32 | 49.84711 | 9.99462 | 35335 ft | 458 kts | 303° |
| 2026-05-07 13:33 | 49.86494 | 9.95368 | 35557 ft | 458 kts | 303° |
| 2026-05-07 13:33 | 49.88280 | 9.91265 | 35745 ft | 459 kts | 303° |
| 2026-05-07 13:33 | 49.90070 | 9.87147 | 35948 ft | 460 kts | 303° |
| 2026-05-07 13:33 | 49.91864 | 9.83014 | 36009 ft | 462 kts | 303° |
| 2026-05-07 13:34 | 49.97261 | 9.70537 | 36010 ft | 463 kts | 302° |
| 2026-05-07 13:35 | 50.00844 | 9.62217 | 36031 ft | 463 kts | 302° |
| 2026-05-07 13:35 | 50.04202 | 9.53611 | 36022 ft | 462 kts | 297° |
| 2026-05-07 13:36 | 50.06939 | 9.44547 | 36034 ft | 462 kts | 291° |
| 2026-05-07 13:36 | 50.09042 | 9.35083 | 36033 ft | 462 kts | 285° |
| 2026-05-07 13:37 | 50.10754 | 9.25430 | 36035 ft | 462 kts | 284° |
| 2026-05-07 13:37 | 50.12427 | 9.15834 | 36036 ft | 462 kts | 284° |
| 2026-05-07 13:38 | 50.14110 | 9.06151 | 36035 ft | 461 kts | 284° |
| 2026-05-07 13:38 | 50.15784 | 8.96492 | 36044 ft | 461 kts | 284° |
| 2026-05-07 13:39 | 50.17452 | 8.86820 | 36052 ft | 461 kts | 284° |
| 2026-05-07 13:39 | 50.19111 | 8.77144 | 36049 ft | 461 kts | 284° |
| 2026-05-07 13:40 | 50.20762 | 8.67465 | 36054 ft | 461 kts | 284° |
| 2026-05-07 13:40 | 50.22405 | 8.57773 | 36057 ft | 461 kts | 284° |
| 2026-05-07 13:41 | 50.24042 | 8.48069 | 36046 ft | 461 kts | 284° |
| 2026-05-07 13:41 | 50.25668 | 8.38373 | 36050 ft | 461 kts | 284° |
| 2026-05-07 13:42 | 50.27288 | 8.28655 | 36049 ft | 461 kts | 284° |
| 2026-05-07 13:42 | 50.28895 | 8.18959 | 36051 ft | 460 kts | 284° |
| 2026-05-07 13:43 | 50.30500 | 8.09228 | 36047 ft | 460 kts | 284° |
| 2026-05-07 13:43 | 50.32092 | 7.99517 | 36046 ft | 460 kts | 284° |
| 2026-05-07 13:44 | 50.33675 | 7.89805 | 36046 ft | 460 kts | 284° |
| 2026-05-07 13:44 | 50.35251 | 7.80077 | 36043 ft | 460 kts | 283° |
| 2026-05-07 13:45 | 50.36817 | 7.70357 | 36051 ft | 459 kts | 283° |
| 2026-05-07 13:45 | 50.38363 | 7.60703 | 36047 ft | 459 kts | 283° |
| 2026-05-07 13:46 | 50.39912 | 7.50976 | 36051 ft | 459 kts | 283° |
| 2026-05-07 13:46 | 50.41452 | 7.41255 | 36049 ft | 459 kts | 283° |
| 2026-05-07 13:47 | 50.42982 | 7.31521 | 36049 ft | 459 kts | 283° |
| 2026-05-07 13:47 | 50.44511 | 7.21759 | 36046 ft | 459 kts | 283° |
| 2026-05-07 13:48 | 50.46026 | 7.12023 | 36045 ft | 458 kts | 283° |
| 2026-05-07 13:48 | 50.47533 | 7.02283 | 36048 ft | 459 kts | 283° |
| 2026-05-07 13:49 | 50.49033 | 6.92518 | 36043 ft | 459 kts | 283° |
| 2026-05-07 13:49 | 50.50615 | 6.82810 | 36040 ft | 458 kts | 286° |
| 2026-05-07 13:50 | 50.52726 | 6.73356 | 36044 ft | 458 kts | 290° |
| 2026-05-07 13:50 | 50.55032 | 6.64001 | 36040 ft | 459 kts | 290° |
| 2026-05-07 13:51 | 50.57339 | 6.54636 | 36032 ft | 458 kts | 290° |
| 2026-05-07 13:51 | 50.59636 | 6.45262 | 36038 ft | 458 kts | 290° |
| 2026-05-07 13:52 | 50.61920 | 6.35885 | 36040 ft | 458 kts | 290° |
| 2026-05-07 13:52 | 50.64195 | 6.26496 | 36039 ft | 458 kts | 290° |
| 2026-05-07 13:53 | 50.66447 | 6.17165 | 36042 ft | 458 kts | 290° |
| 2026-05-07 13:53 | 50.68707 | 6.07764 | 36051 ft | 458 kts | 290° |
| 2026-05-07 13:54 | 50.70955 | 5.98385 | 36051 ft | 457 kts | 289° |
| 2026-05-07 13:54 | 50.73202 | 5.88950 | 36058 ft | 457 kts | 289° |
| 2026-05-07 13:55 | 50.75437 | 5.79525 | 36056 ft | 458 kts | 289° |
| 2026-05-07 13:55 | 50.77666 | 5.70091 | 36060 ft | 458 kts | 289° |
| 2026-05-07 13:56 | 50.79891 | 5.60631 | 36081 ft | 458 kts | 289° |
| 2026-05-07 13:56 | 50.82112 | 5.51153 | 36077 ft | 458 kts | 289° |
| 2026-05-07 13:57 | 50.84317 | 5.41694 | 36079 ft | 458 kts | 289° |
| 2026-05-07 13:57 | 50.86514 | 5.32228 | 36065 ft | 458 kts | 289° |
| 2026-05-07 13:58 | 50.88705 | 5.22747 | 36066 ft | 458 kts | 289° |
| 2026-05-07 13:58 | 50.90889 | 5.13259 | 36067 ft | 457 kts | 288° |
| 2026-05-07 13:59 | 50.93062 | 5.03771 | 36065 ft | 457 kts | 288° |
| 2026-05-07 13:59 | 50.95226 | 4.94278 | 36070 ft | 457 kts | 288° |
| 2026-05-07 14:00 | 50.97383 | 4.84774 | 36068 ft | 457 kts | 288° |
| 2026-05-07 14:00 | 50.99518 | 4.75326 | 36071 ft | 457 kts | 288° |
| 2026-05-07 14:01 | 51.01660 | 4.65807 | 36083 ft | 457 kts | 288° |
| 2026-05-07 14:01 | 51.03798 | 4.56263 | 36083 ft | 458 kts | 288° |
| 2026-05-07 14:02 | 51.05926 | 4.46719 | 36082 ft | 458 kts | 288° |
| 2026-05-07 14:02 | 51.07702 | 4.38718 | 36082 ft | 458 kts | 288° |
| 2026-05-07 14:03 | 51.09802 | 4.29223 | 36081 ft | 458 kts | 288° |
| 2026-05-07 14:03 | 51.11912 | 4.19635 | 36081 ft | 458 kts | 288° |
| 2026-05-07 14:04 | 51.14025 | 4.09992 | 36079 ft | 457 kts | 288° |
| 2026-05-07 14:04 | 51.16115 | 4.00410 | 36078 ft | 457 kts | 288° |
| 2026-05-07 14:05 | 51.18179 | 3.90901 | 36075 ft | 457 kts | 288° |
| 2026-05-07 14:05 | 51.20256 | 3.81298 | 36076 ft | 457 kts | 287° |
| 2026-05-07 14:06 | 51.22321 | 3.71688 | 36076 ft | 457 kts | 287° |
| 2026-05-07 14:06 | 51.24086 | 3.61941 | 36075 ft | 456 kts | 281° |
| 2026-05-07 14:07 | 51.25429 | 3.52026 | 36075 ft | 456 kts | 281° |
| 2026-05-07 14:07 | 51.26737 | 3.42106 | 36076 ft | 456 kts | 281° |
| 2026-05-07 14:08 | 51.28026 | 3.32174 | 36085 ft | 456 kts | 280° |
| 2026-05-07 14:08 | 51.29298 | 3.22223 | 36083 ft | 457 kts | 280° |
| 2026-05-07 14:09 | 51.30566 | 3.12254 | 36084 ft | 457 kts | 280° |
| 2026-05-07 14:09 | 51.31829 | 3.02279 | 36081 ft | 457 kts | 280° |
| 2026-05-07 14:10 | 51.33084 | 2.92304 | 36079 ft | 457 kts | 280° |
| 2026-05-07 14:10 | 51.34329 | 2.82318 | 36084 ft | 457 kts | 280° |
| 2026-05-07 14:11 | 51.35566 | 2.72319 | 36081 ft | 457 kts | 280° |
| 2026-05-07 14:11 | 51.36799 | 2.62320 | 36080 ft | 457 kts | 280° |
| 2026-05-07 14:12 | 51.38026 | 2.52307 | 36079 ft | 457 kts | 279° |
| 2026-05-07 14:12 | 51.39245 | 2.42294 | 36082 ft | 457 kts | 279° |
| 2026-05-07 14:13 | 51.40454 | 2.32277 | 36084 ft | 458 kts | 279° |
| 2026-05-07 14:13 | 51.41661 | 2.22251 | 36085 ft | 458 kts | 279° |
| 2026-05-07 14:14 | 51.42880 | 2.12301 | 36085 ft | 458 kts | 279° |
| 2026-05-07 14:14 | 51.44105 | 2.02203 | 36086 ft | 458 kts | 279° |
| 2026-05-07 14:15 | 51.45290 | 1.92249 | 36086 ft | 458 kts | 279° |
| 2026-05-07 14:15 | 51.46463 | 1.82205 | 36088 ft | 458 kts | 279° |
| 2026-05-07 14:16 | 51.47624 | 1.72154 | 36092 ft | 457 kts | 279° |
| 2026-05-07 14:16 | 51.48776 | 1.62098 | 36092 ft | 457 kts | 279° |
| 2026-05-07 14:17 | 51.49919 | 1.52037 | 36084 ft | 458 kts | 279° |
| 2026-05-07 14:17 | 51.51055 | 1.41971 | 36088 ft | 458 kts | 279° |
| 2026-05-07 14:18 | 51.52185 | 1.31895 | 36084 ft | 458 kts | 279° |
| 2026-05-07 14:18 | 51.53305 | 1.21817 | 36082 ft | 458 kts | 278° |
| 2026-05-07 14:19 | 51.54320 | 1.11699 | 36082 ft | 457 kts | 275° |
| 2026-05-07 14:19 | 51.54988 | 1.01522 | 36078 ft | 457 kts | 274° |
| 2026-05-07 14:20 | 51.55629 | 0.91342 | 36080 ft | 457 kts | 274° |
| 2026-05-07 14:20 | 51.56267 | 0.81124 | 36086 ft | 457 kts | 274° |
| 2026-05-07 14:21 | 51.56896 | 0.70936 | 36080 ft | 457 kts | 274° |
| 2026-05-07 14:21 | 51.57518 | 0.60707 | 36088 ft | 459 kts | 274° |
| 2026-05-07 14:22 | 51.58137 | 0.50405 | 36086 ft | 460 kts | 274° |
| 2026-05-07 14:22 | 51.58745 | 0.40147 | 36082 ft | 460 kts | 274° |
| 2026-05-07 14:23 | 51.59343 | 0.29883 | 36077 ft | 460 kts | 274° |
| 2026-05-07 14:23 | 51.59932 | 0.19627 | 36085 ft | 460 kts | 274° |
| 2026-05-07 14:24 | 51.60513 | 0.09359 | 36086 ft | 460 kts | 274° |
| 2026-05-07 14:24 | 51.61085 | -0.00892 | 36086 ft | 460 kts | 274° |
| 2026-05-07 14:25 | 51.61642 | -0.11084 | 36076 ft | 460 kts | 274° |
| 2026-05-07 14:25 | 51.62258 | -0.21412 | 36077 ft | 460 kts | 274° |
| 2026-05-07 14:26 | 51.62888 | -0.31596 | 36089 ft | 460 kts | 274° |
| 2026-05-07 14:26 | 51.63510 | -0.41852 | 36052 ft | 460 kts | 274° |
| 2026-05-07 14:27 | 51.64121 | -0.52114 | 36054 ft | 460 kts | 274° |
| 2026-05-07 14:27 | 51.64722 | -0.62374 | 36052 ft | 460 kts | 274° |
| 2026-05-07 14:28 | 51.65314 | -0.72638 | 36049 ft | 460 kts | 274° |
| 2026-05-07 14:28 | 51.65896 | -0.82898 | 36050 ft | 459 kts | 274° |
| 2026-05-07 14:29 | 51.66470 | -0.93169 | 36050 ft | 459 kts | 274° |
| 2026-05-07 14:29 | 51.67035 | -1.03435 | 36053 ft | 459 kts | 274° |
| 2026-05-07 14:30 | 51.67591 | -1.13696 | 36060 ft | 459 kts | 273° |
| 2026-05-07 14:30 | 51.68138 | -1.23963 | 36049 ft | 459 kts | 273° |